createdAt,value
2018-12-02T00:01:46.150Z,97120.39
2018-12-02T00:04:15.533Z,97111.91
2018-12-02T00:06:44.892Z,97110.65
2018-12-02T00:09:14.368Z,97112.77
2018-12-02T00:11:43.753Z,97111.91
2018-12-02T00:14:13.148Z,97099.19
2018-12-02T00:16:42.549Z,97106.40
2018-12-02T00:19:11.933Z,97096.20
2018-12-02T00:21:41.316Z,97092.03
2018-12-02T00:24:10.723Z,97089.00
2018-12-02T00:26:40.208Z,97091.95
2018-12-02T00:29:09.765Z,97084.33
2018-12-02T00:31:39.133Z,97079.64
2018-12-02T00:34:08.537Z,97080.89
2018-12-02T00:36:37.925Z,97077.50
2018-12-02T00:39:07.788Z,97077.05
2018-12-02T00:41:37.172Z,97071.56
2018-12-02T00:44:06.873Z,97068.58
2018-12-02T00:46:36.252Z,97069.41
2018-12-02T00:49:05.795Z,97061.77
2018-12-02T00:51:35.194Z,97059.63
2018-12-02T00:54:04.580Z,97067.68
2018-12-02T00:56:34.882Z,97068.53
2018-12-02T00:59:04.461Z,97070.24
2018-12-02T01:01:33.844Z,97069.41
2018-12-02T01:04:03.241Z,97057.94
2018-12-02T01:06:32.645Z,97054.55
2018-12-02T01:09:02.027Z,97057.13
2018-12-02T01:11:31.404Z,97056.23
2018-12-02T01:14:00.797Z,97047.31
2018-12-02T01:16:30.190Z,97049.03
2018-12-02T01:18:59.689Z,97045.20
2018-12-02T01:21:29.052Z,97040.11
2018-12-02T01:23:58.469Z,97036.27
2018-12-02T01:26:27.884Z,97037.94
2018-12-02T01:28:57.268Z,97033.30
2018-12-02T01:31:26.682Z,97028.66
2018-12-02T01:33:56.168Z,97027.38
2018-12-02T01:36:25.584Z,97022.27
2018-12-02T01:38:55.014Z,97016.34
2018-12-02T01:41:24.392Z,97010.83
2018-12-02T01:43:53.803Z,97017.19
2018-12-02T01:46:23.200Z,97010.00
2018-12-02T01:48:52.589Z,97009.12
2018-12-02T01:51:21.979Z,97003.67
2018-12-02T01:53:51.383Z,96988.83
2018-12-02T01:56:20.768Z,96980.31
2018-12-02T01:58:50.506Z,96979.86
2018-12-02T02:01:20.118Z,96973.95
2018-12-02T02:03:49.884Z,96969.25
2018-12-02T02:06:19.599Z,96964.56
2018-12-02T02:08:49.013Z,96966.23
2018-12-02T02:11:18.413Z,96960.33
2018-12-02T02:13:47.805Z,96961.59
2018-12-02T02:16:17.177Z,96959.85
2018-12-02T02:18:46.576Z,96953.96
2018-12-02T02:21:16.025Z,96953.53
2018-12-02T02:23:45.434Z,96943.80
2018-12-02T02:26:14.810Z,96939.13
2018-12-02T02:28:44.213Z,96931.45
2018-12-02T02:31:13.604Z,96925.55
2018-12-02T02:33:42.985Z,96929.75
2018-12-02T02:36:12.350Z,96922.14
2018-12-02T02:38:41.745Z,96917.91
2018-12-02T02:41:11.114Z,96922.14
2018-12-02T02:43:40.530Z,96916.26
2018-12-02T02:46:09.907Z,96905.26
2018-12-02T02:48:39.333Z,96894.59
2018-12-02T02:51:08.803Z,96888.30
2018-12-02T02:53:38.205Z,96884.91
2018-12-02T02:56:07.664Z,96878.98
2018-12-02T02:58:37.055Z,96875.16
2018-12-02T03:01:06.785Z,96869.20
2018-12-02T03:03:36.236Z,96874.34
2018-12-02T03:06:05.742Z,96872.66
2018-12-02T03:08:35.110Z,96873.45
2018-12-02T03:11:04.513Z,96866.66
2018-12-02T03:13:33.881Z,96863.66
2018-12-02T03:16:03.261Z,96868.30
2018-12-02T03:18:32.639Z,96869.56
2018-12-02T03:21:02.041Z,96860.66
2018-12-02T03:23:31.493Z,96852.13
2018-12-02T03:26:00.881Z,96844.89
2018-12-02T03:28:30.266Z,96841.53
2018-12-02T03:30:59.657Z,96836.41
2018-12-02T03:33:29.046Z,96833.44
2018-12-02T03:35:58.443Z,96822.81
2018-12-02T03:38:27.820Z,96826.17
2018-12-02T03:40:57.218Z,96824.06
2018-12-02T03:43:26.609Z,96815.17
2018-12-02T03:46:02.539Z,96789.02
2018-12-02T03:48:31.929Z,96818.13
2018-12-02T03:51:01.330Z,96806.67
2018-12-02T03:53:30.708Z,96803.75
2018-12-02T03:56:00.092Z,96813.93
2018-12-02T03:58:29.510Z,96806.73
2018-12-02T04:00:58.888Z,96806.23
2018-12-02T04:03:28.270Z,96801.09
2018-12-02T04:05:57.655Z,96797.70
2018-12-02T04:08:27.101Z,96797.73
2018-12-02T04:10:56.493Z,96795.25
2018-12-02T04:13:25.857Z,96796.45
2018-12-02T04:15:55.266Z,96791.80
2018-12-02T04:18:24.658Z,96794.87
2018-12-02T04:20:54.076Z,96783.47
2018-12-02T04:23:23.465Z,96786.39
2018-12-02T04:25:52.833Z,96785.55
2018-12-02T04:28:22.233Z,96781.36
2018-12-02T04:30:51.617Z,96773.63
2018-12-02T04:33:21.005Z,96771.92
2018-12-02T04:35:50.385Z,96774.91
2018-12-02T04:38:19.765Z,96768.94
2018-12-02T04:40:49.161Z,96764.72
2018-12-02T04:43:18.550Z,96735.16
2018-12-02T04:45:47.926Z,96760.03
2018-12-02T04:48:17.345Z,96765.19
2018-12-02T04:50:46.754Z,96755.34
2018-12-02T04:53:16.133Z,96752.02
2018-12-02T04:55:45.533Z,96748.61
2018-12-02T04:58:14.897Z,96741.38
2018-12-02T05:00:44.274Z,96737.12
2018-12-02T05:03:13.687Z,96729.08
2018-12-02T05:05:43.068Z,96721.41
2018-12-02T05:08:12.622Z,96722.28
2018-12-02T05:10:42.097Z,96712.09
2018-12-02T05:13:11.498Z,96703.95
2018-12-02T05:15:40.868Z,96706.94
2018-12-02T05:18:10.388Z,96701.04
2018-12-02T05:20:39.768Z,96699.33
2018-12-02T05:23:09.141Z,96694.14
2018-12-02T05:25:38.533Z,96692.03
2018-12-02T05:28:07.926Z,96684.83
2018-12-02T05:30:37.305Z,96678.45
2018-12-02T05:33:07.525Z,96682.61
2018-12-02T05:35:36.897Z,96681.66
2018-12-02T05:38:06.896Z,96670.17
2018-12-02T05:40:36.283Z,96667.19
2018-12-02T05:43:05.677Z,96669.77
2018-12-02T05:45:35.062Z,96669.73
2018-12-02T05:48:04.447Z,96659.11
2018-12-02T05:50:33.814Z,96663.84
2018-12-02T05:53:03.220Z,96658.70
2018-12-02T05:55:36.065Z,96657.83
2018-12-02T05:58:06.425Z,96654.01
2018-12-02T06:00:35.785Z,96653.17
2018-12-02T06:03:05.231Z,96654.05
2018-12-02T06:05:34.619Z,96654.01
2018-12-02T06:08:04.019Z,96649.75
2018-12-02T06:10:33.426Z,96643.42
2018-12-02T06:13:02.804Z,96643.82
2018-12-02T06:15:32.189Z,96635.31
2018-12-02T06:18:01.569Z,96636.70
2018-12-02T06:20:30.940Z,96633.39
2018-12-02T06:23:00.338Z,96632.08
2018-12-02T06:25:29.733Z,96627.46
2018-12-02T06:27:59.165Z,96625.78
2018-12-02T06:30:29.328Z,96617.71
2018-12-02T06:33:03.221Z,96614.29
2018-12-02T06:35:32.614Z,96616.72
2018-12-02T06:38:03.946Z,96608.72
2018-12-02T06:40:33.388Z,96611.30
2018-12-02T06:43:02.781Z,96608.32
2018-12-02T06:45:32.169Z,96604.14
2018-12-02T06:48:01.536Z,96604.50
2018-12-02T06:50:30.900Z,96602.36
2018-12-02T06:53:00.345Z,96598.17
2018-12-02T06:55:46.153Z,96596.11
2018-12-02T06:59:40.820Z,96589.22
2018-12-02T07:02:27.788Z,96589.22
2018-12-02T07:04:57.192Z,96585.87
2018-12-02T07:07:26.671Z,96589.66
2018-12-02T07:09:56.345Z,96585.84
2018-12-02T07:12:26.029Z,96589.66
2018-12-02T07:14:55.507Z,96587.91
2018-12-02T07:17:28.068Z,96585.77
2018-12-02T07:20:02.681Z,96581.98
2018-12-02T07:22:37.952Z,96579.39
2018-12-02T07:25:11.749Z,96582.42
2018-12-02T07:27:41.161Z,96582.34
2018-12-02T07:30:11.749Z,96576.37
2018-12-02T07:32:41.098Z,96578.92
2018-12-02T07:35:13.550Z,96574.78
2018-12-02T07:37:47.132Z,96568.30
2018-12-02T07:40:29.172Z,96563.27
2018-12-02T07:42:58.557Z,96563.20
2018-12-02T07:45:27.966Z,96567.81
2018-12-02T07:47:57.414Z,96565.27
2018-12-02T07:50:26.881Z,96557.54
2018-12-02T07:52:56.277Z,96567.64
2018-12-02T07:55:25.672Z,96560.92
2018-12-02T07:57:55.085Z,96564.78
2018-12-02T08:00:24.484Z,96551.13
2018-12-02T08:02:53.865Z,96553.23
2018-12-02T08:05:23.253Z,96551.05
2018-12-02T08:07:53.228Z,96550.16
2018-12-02T08:10:22.613Z,96550.55
2018-12-02T08:12:52.134Z,96549.63
2018-12-02T08:15:21.749Z,96547.48
2018-12-02T08:17:51.120Z,96541.12
2018-12-02T08:20:20.556Z,96530.92
2018-12-02T08:22:51.527Z,96540.58
2018-12-02T08:25:20.095Z,96550.77
2018-12-02T08:27:49.864Z,96543.92
2018-12-02T08:30:23.670Z,96540.09
2018-12-02T08:32:53.353Z,96526.82
2018-12-02T08:35:27.824Z,96522.95
2018-12-02T08:37:59.645Z,96521.28
2018-12-02T08:40:29.058Z,96520.41
2018-12-02T08:42:58.444Z,96519.91
2018-12-02T08:45:27.858Z,96523.59
2018-12-02T08:47:57.247Z,96524.72
2018-12-02T08:50:26.634Z,96526.88
2018-12-02T08:52:56.118Z,96526.88
2018-12-02T08:55:25.535Z,96520.84
2018-12-02T08:57:55.418Z,96520.01
2018-12-02T09:00:24.882Z,96501.09
2018-12-02T09:02:59.325Z,96522.86
2018-12-02T09:05:28.748Z,96527.66
2018-12-02T09:08:01.081Z,96525.45
2018-12-02T09:10:32.157Z,96526.29
2018-12-02T09:13:04.742Z,96524.95
2018-12-02T09:15:34.130Z,96518.14
2018-12-02T09:18:03.612Z,96520.59
2018-12-02T09:20:35.638Z,96513.67
2018-12-02T09:23:06.521Z,96510.63
2018-12-02T09:25:35.949Z,96511.80
2018-12-02T09:28:05.719Z,96502.44
2018-12-02T09:30:36.486Z,96507.92
2018-12-02T09:33:05.955Z,96503.25
2018-12-02T09:35:35.352Z,96504.87
2018-12-02T09:38:04.732Z,96503.14
2018-12-02T09:40:34.136Z,96505.20
2018-12-02T09:43:03.534Z,96510.02
2018-12-02T09:45:32.981Z,96509.93
2018-12-02T09:48:02.482Z,96516.35
2018-12-02T09:50:31.860Z,96510.36
2018-12-02T09:53:01.245Z,96508.64
2018-12-02T09:55:37.345Z,96501.77
2018-12-02T09:58:09.371Z,96502.49
2018-12-02T10:00:38.773Z,96498.98
2018-12-02T10:03:08.149Z,96491.66
2018-12-02T10:05:37.561Z,96490.28
2018-12-02T10:08:07.252Z,96485.98
2018-12-02T10:10:36.616Z,96489.27
2018-12-02T10:13:10.214Z,96492.57
2018-12-02T10:15:41.385Z,96498.62
2018-12-02T10:18:10.813Z,96487.59
2018-12-02T10:20:40.191Z,96485.03
2018-12-02T10:23:10.053Z,96485.62
2018-12-02T10:25:39.476Z,96477.83
2018-12-02T10:28:10.228Z,96483.70
2018-12-02T10:30:41.501Z,96484.98
2018-12-02T10:33:11.225Z,96479.83
2018-12-02T10:35:40.945Z,96479.49
2018-12-02T10:38:10.357Z,96476.86
2018-12-02T10:40:40.005Z,96475.93
2018-12-02T10:43:09.381Z,96483.12
2018-12-02T10:45:38.775Z,96478.80
2018-12-02T10:48:11.813Z,96478.23
2018-12-02T10:50:41.212Z,96472.76
2018-12-02T10:53:15.897Z,96468.91
2018-12-02T10:55:54.656Z,96467.66
2018-12-02T10:58:33.528Z,96467.56
2018-12-02T11:01:09.103Z,96470.45
2018-12-02T11:03:38.573Z,96463.48
2018-12-02T11:06:07.940Z,96459.66
2018-12-02T11:08:37.346Z,96461.53
2018-12-02T11:11:07.109Z,96465.80
2018-12-02T11:13:36.544Z,96465.30
2018-12-02T11:16:06.597Z,96464.64
2018-12-02T11:18:36.103Z,96465.55
2018-12-02T11:21:05.588Z,96462.61
2018-12-02T11:23:34.976Z,96455.40
2018-12-02T11:26:04.479Z,96461.27
2018-12-02T11:28:33.853Z,96451.43
2018-12-02T11:31:03.304Z,96450.55
2018-12-02T11:33:32.699Z,96456.05
2018-12-02T11:36:02.089Z,96454.95
2018-12-02T11:38:31.464Z,96453.34
2018-12-02T11:41:00.880Z,96453.22
2018-12-02T11:43:30.269Z,96450.42
2018-12-02T11:45:59.632Z,96446.00
2018-12-02T11:48:29.020Z,96448.85
2018-12-02T11:50:58.406Z,96444.19
2018-12-02T11:53:27.816Z,96438.58
2018-12-02T11:55:57.199Z,96439.73
2018-12-02T11:58:26.598Z,96437.08
2018-12-02T12:00:55.984Z,96440.05
2018-12-02T12:03:25.470Z,96434.84
2018-12-02T12:05:54.861Z,96433.66
2018-12-02T12:08:24.256Z,96427.73
2018-12-02T12:10:53.950Z,96427.45
2018-12-02T12:13:23.409Z,96430.47
2018-12-02T12:15:52.761Z,96434.81
2018-12-02T12:18:22.146Z,96433.23
2018-12-02T12:20:51.553Z,96432.13
2018-12-02T12:23:22.056Z,96437.82
2018-12-02T12:25:51.473Z,96430.25
2018-12-02T12:28:20.908Z,96432.70
2018-12-02T12:30:50.373Z,96427.67
2018-12-02T12:33:19.831Z,96428.59
2018-12-02T12:35:51.163Z,96423.55
2018-12-02T12:38:20.645Z,96427.25
2018-12-02T12:40:51.920Z,96429.05
2018-12-02T12:43:32.384Z,96420.97
2018-12-02T12:46:03.100Z,96422.05
2018-12-02T12:48:32.576Z,96412.80
2018-12-02T12:51:02.049Z,96423.03
2018-12-02T12:53:31.417Z,96417.08
2018-12-02T12:56:00.828Z,96420.44
2018-12-02T12:58:30.208Z,96425.13
2018-12-02T13:00:59.593Z,96396.08
2018-12-02T13:03:29.065Z,96420.74
2018-12-02T13:05:58.453Z,96424.83
2018-12-02T13:08:27.836Z,96420.44
2018-12-02T13:10:57.222Z,96422.55
2018-12-02T13:13:26.608Z,96423.25
2018-12-02T13:15:55.980Z,96421.83
2018-12-02T13:18:25.377Z,96423.20
2018-12-02T13:20:56.177Z,96424.28
2018-12-02T13:23:25.597Z,96424.81
2018-12-02T13:25:55.133Z,96426.73
2018-12-02T13:28:24.518Z,96421.58
2018-12-02T13:30:53.920Z,96417.22
2018-12-02T13:33:23.337Z,96427.36
2018-12-02T13:35:52.738Z,96428.97
2018-12-02T13:38:22.395Z,96427.16
2018-12-02T13:40:52.088Z,96430.83
2018-12-02T13:43:23.678Z,96435.20
2018-12-02T13:45:53.333Z,96429.47
2018-12-02T13:48:22.748Z,96441.52
2018-12-02T13:50:52.144Z,96447.64
2018-12-02T13:53:22.468Z,96443.77
2018-12-02T13:55:52.294Z,96447.33
2018-12-02T13:58:21.763Z,96446.19
2018-12-02T14:00:51.128Z,96454.45
2018-12-02T14:03:20.533Z,96454.48
2018-12-02T14:05:50.120Z,96459.76
2018-12-02T14:08:19.500Z,96462.31
2018-12-02T14:10:48.929Z,96465.22
2018-12-02T14:13:23.613Z,96466.05
2018-12-02T14:17:06.252Z,96463.66
2018-12-02T14:19:35.752Z,96463.79
2018-12-02T14:22:05.277Z,96467.52
2018-12-02T14:24:34.676Z,96472.22
2018-12-02T14:27:04.062Z,96475.89
2018-12-02T14:29:41.667Z,96477.08
2018-12-02T14:32:14.934Z,96481.58
2018-12-02T14:34:44.596Z,96487.41
2018-12-02T14:37:14.253Z,96492.95
2018-12-02T14:39:43.665Z,96496.50
2018-12-02T14:42:13.066Z,96490.63
2018-12-02T14:44:42.481Z,96478.63
2018-12-02T14:47:11.901Z,96496.92
2018-12-02T14:49:41.284Z,96498.28
2018-12-02T14:52:10.802Z,96493.91
2018-12-02T14:54:40.197Z,96505.44
2018-12-02T14:57:09.589Z,96504.01
2018-12-02T14:59:38.996Z,96505.35
2018-12-02T15:02:08.391Z,96509.28
2018-12-02T15:04:37.780Z,96510.86
2018-12-02T15:07:07.670Z,96507.91
2018-12-02T15:09:37.101Z,96511.19
2018-12-02T15:12:06.955Z,96508.63
2018-12-02T15:14:36.369Z,96511.91
2018-12-02T15:17:05.919Z,96513.55
2018-12-02T15:19:35.310Z,96524.05
2018-12-02T15:22:04.716Z,96517.39
2018-12-02T15:24:34.152Z,96523.95
2018-12-02T15:27:03.543Z,96524.63
2018-12-02T15:29:33.085Z,96525.08
2018-12-02T15:32:02.547Z,96523.77
2018-12-02T15:34:31.936Z,96516.33
2018-12-02T15:37:01.332Z,96519.39
2018-12-02T15:39:30.796Z,96517.75
2018-12-02T15:42:00.251Z,96517.13
2018-12-02T15:44:29.661Z,96518.50
2018-12-02T15:46:59.059Z,96522.70
2018-12-02T15:49:28.442Z,96514.03
2018-12-02T15:51:57.871Z,96523.82
2018-12-02T15:54:27.305Z,96525.52
2018-12-02T15:56:56.753Z,96524.44
2018-12-02T15:59:26.165Z,96527.03
2018-12-02T16:01:55.554Z,96529.66
2018-12-02T16:04:24.962Z,96528.31
2018-12-02T16:06:54.358Z,96527.97
2018-12-02T16:09:23.749Z,96524.94
2018-12-02T16:11:53.121Z,96529.20
2018-12-02T16:14:22.617Z,96533.88
2018-12-02T16:16:52.990Z,96536.16
2018-12-02T16:19:21.414Z,96546.27
2018-12-02T16:21:50.806Z,96536.29
2018-12-02T16:24:20.201Z,96540.42
2018-12-02T16:26:49.594Z,96535.91
2018-12-02T16:29:18.966Z,96540.10
2018-12-02T16:31:48.368Z,96549.95
2018-12-02T16:34:17.840Z,96546.90
2018-12-02T16:36:47.252Z,96554.69
2018-12-02T16:39:16.758Z,96547.73
2018-12-02T16:41:46.149Z,96550.97
2018-12-02T16:44:15.580Z,96554.38
2018-12-02T16:46:44.992Z,96557.55
2018-12-02T16:49:14.658Z,96557.31
2018-12-02T16:51:44.403Z,96558.56
2018-12-02T16:54:14.151Z,96571.40
2018-12-02T16:56:44.075Z,96575.25
2018-12-02T16:59:21.678Z,96575.05
2018-12-02T17:01:58.632Z,96570.63
2018-12-02T17:04:28.336Z,96566.08
2018-12-02T17:06:57.841Z,96569.16
2018-12-02T17:09:27.337Z,96568.32
2018-12-02T17:11:56.857Z,96574.51
2018-12-02T17:14:26.272Z,96576.63
2018-12-02T17:16:55.676Z,96581.76
2018-12-02T17:19:25.144Z,96585.09
2018-12-02T17:21:54.670Z,96588.23
2018-12-02T17:24:24.094Z,96582.80
2018-12-02T17:26:53.474Z,96584.47
2018-12-02T17:29:23.165Z,96584.59
2018-12-02T17:32:00.304Z,96574.28
2018-12-02T17:34:29.706Z,96580.30
2018-12-02T17:36:59.194Z,96578.52
2018-12-02T17:39:31.370Z,96577.10
2018-12-02T17:42:06.024Z,96576.56
2018-12-02T17:44:35.432Z,96573.45
2018-12-02T17:47:04.915Z,96570.24
2018-12-02T17:49:34.361Z,96579.41
2018-12-02T17:52:03.759Z,96575.95
2018-12-02T17:54:33.176Z,96571.37
2018-12-02T17:57:02.971Z,96570.98
2018-12-02T17:59:32.461Z,96582.55
2018-12-02T18:02:02.553Z,96579.85
2018-12-02T18:04:33.442Z,96576.11
2018-12-02T18:07:04.516Z,96577.33
2018-12-02T18:09:35.321Z,96576.50
2018-12-02T18:12:05.665Z,96575.66
2018-12-02T18:14:35.413Z,96579.45
2018-12-02T18:17:06.253Z,96579.95
2018-12-02T18:19:36.360Z,96579.86
2018-12-02T18:22:06.270Z,96589.77
2018-12-02T18:24:36.655Z,96589.13
2018-12-02T18:27:06.464Z,96596.22
2018-12-02T18:29:35.973Z,96593.62
2018-12-02T18:32:05.603Z,96590.35
2018-12-02T18:34:36.275Z,96588.62
2018-12-02T18:37:10.152Z,96589.88
2018-12-02T18:39:40.799Z,96587.69
2018-12-02T18:42:12.305Z,96590.73
2018-12-02T18:44:43.999Z,96591.73
2018-12-02T18:47:15.248Z,96588.52
2018-12-02T18:49:46.456Z,96586.12
2018-12-02T18:52:18.193Z,96595.74
2018-12-02T18:54:49.782Z,96583.20
2018-12-02T18:57:21.683Z,96581.50
2018-12-02T18:59:53.769Z,96583.23
2018-12-02T19:02:24.055Z,96585.34
2018-12-02T19:04:54.817Z,96584.97
2018-12-02T19:07:25.223Z,96585.51
2018-12-02T19:09:56.070Z,96587.82
2018-12-02T19:12:28.261Z,96578.39
2018-12-02T19:15:01.331Z,96581.20
2018-12-02T19:17:34.644Z,96590.16
2018-12-02T19:20:08.798Z,96588.66
2018-12-02T19:22:39.073Z,96594.78
2018-12-02T19:25:13.671Z,96589.20
2018-12-02T19:27:44.232Z,96586.09
2018-12-02T19:30:18.198Z,96587.56
2018-12-02T19:32:50.743Z,96586.28
2018-12-02T19:35:38.787Z,96589.39
2018-12-02T19:38:18.666Z,96591.22
2018-12-02T19:40:50.962Z,96599.52
2018-12-02T19:43:23.414Z,96600.61
2018-12-02T19:45:55.902Z,96584.39
2018-12-02T19:48:28.206Z,96590.45
2018-12-02T19:51:00.433Z,96590.73
2018-12-02T19:53:32.698Z,96587.34
2018-12-02T19:56:04.948Z,96586.22
2018-12-02T19:58:37.166Z,96588.78
2018-12-02T20:01:09.521Z,96595.20
2018-12-02T20:03:41.641Z,96592.50
2018-12-02T20:06:13.896Z,96587.98
2018-12-02T20:08:47.092Z,96586.73
2018-12-02T20:11:18.723Z,96591.59
2018-12-02T20:13:50.870Z,96587.27
2018-12-02T20:16:23.119Z,96582.73
2018-12-02T20:18:55.661Z,96578.33
2018-12-02T20:21:28.316Z,96580.63
2018-12-02T20:24:05.136Z,96584.20
2018-12-02T20:26:37.217Z,96584.55
2018-12-02T20:29:09.395Z,96593.19
2018-12-02T20:31:41.697Z,96592.84
2018-12-02T20:34:13.912Z,96593.33
2018-12-02T20:36:46.185Z,96592.06
2018-12-02T20:39:18.397Z,96587.22
2018-12-02T20:41:50.722Z,96594.22
2018-12-02T20:44:22.925Z,96599.80
2018-12-02T20:46:55.123Z,96594.73
2018-12-02T20:49:27.261Z,96597.40
2018-12-02T20:51:59.873Z,96598.44
2018-12-02T20:54:32.120Z,96609.79
2018-12-02T20:57:04.289Z,96608.36
2018-12-02T20:59:36.373Z,96609.10
2018-12-02T21:02:08.628Z,96605.65
2018-12-02T21:04:40.604Z,96612.42
2018-12-02T21:07:11.423Z,96609.59
2018-12-02T21:09:43.040Z,96610.97
2018-12-02T21:12:14.099Z,96600.45
2018-12-02T21:14:46.123Z,96598.98
2018-12-02T21:17:19.209Z,96594.75
2018-12-02T21:19:49.374Z,96590.38
2018-12-02T21:22:21.232Z,96586.37
2018-12-02T21:24:51.802Z,96591.38
2018-12-02T21:27:21.494Z,96586.09
2018-12-02T21:29:50.993Z,96584.22
2018-12-02T21:32:22.651Z,96576.08
2018-12-02T21:34:51.063Z,96582.20
2018-12-02T21:37:20.458Z,96572.39
2018-12-02T21:39:49.882Z,96574.41
2018-12-02T21:42:19.509Z,96577.30
2018-12-02T21:44:48.989Z,96578.94
2018-12-02T21:47:21.168Z,96577.91
2018-12-02T21:49:47.775Z,96568.58
2018-12-02T21:52:17.180Z,96566.11
2018-12-02T21:54:46.577Z,96562.96
2018-12-02T21:57:15.957Z,96559.59
2018-12-02T21:59:45.340Z,96557.86
2018-12-02T22:02:14.728Z,96553.83
2018-12-02T22:04:44.166Z,96554.98
2018-12-02T22:07:13.552Z,96554.02
2018-12-02T22:09:42.969Z,96561.61
2018-12-02T22:12:12.349Z,96552.44
2018-12-02T22:14:41.765Z,96555.97
2018-12-02T22:17:11.173Z,96555.63
2018-12-02T22:19:40.557Z,96555.78
2018-12-02T22:22:10.010Z,96564.31
2018-12-02T22:24:39.413Z,96568.55
2018-12-02T22:27:08.850Z,96561.91
2018-12-02T22:29:38.250Z,96565.44
2018-12-02T22:32:07.656Z,96566.30
2018-12-02T22:34:37.038Z,96570.43
2018-12-02T22:37:07.220Z,96561.84
2018-12-02T22:39:36.600Z,96557.38
2018-12-02T22:42:06.065Z,96557.27
2018-12-02T22:44:35.453Z,96554.55
2018-12-02T22:47:04.883Z,96557.02
2018-12-02T22:49:34.249Z,96565.10
2018-12-02T22:52:03.640Z,96566.77
2018-12-02T22:54:33.022Z,96555.48
2018-12-02T22:57:02.424Z,96553.95
2018-12-02T22:59:31.823Z,96558.16
2018-12-02T23:02:06.505Z,96562.00
2018-12-02T23:04:35.979Z,96557.90
2018-12-02T23:07:05.528Z,96549.94
2018-12-02T23:09:34.999Z,96538.23
2018-12-02T23:12:04.645Z,96535.50
2018-12-02T23:14:34.265Z,96538.31
2018-12-02T23:17:19.817Z,96538.60
2018-12-02T23:19:49.364Z,96532.87
2018-12-02T23:22:18.809Z,96522.41
2018-12-02T23:24:48.189Z,96525.59
2018-12-02T23:27:17.556Z,96524.64
2018-12-02T23:29:47.033Z,96515.50
2018-12-02T23:32:16.538Z,96508.55
2018-12-02T23:34:46.013Z,96515.66
2018-12-02T23:37:20.445Z,96506.71
2018-12-02T23:39:45.035Z,96504.48
2018-12-02T23:42:14.529Z,96497.91
2018-12-02T23:44:44.057Z,96497.33
2018-12-02T23:47:13.564Z,96500.50
2018-12-02T23:49:43.064Z,96494.04
2018-12-02T23:52:12.558Z,96494.67
2018-12-02T23:54:42.025Z,96495.06
2018-12-02T23:57:11.500Z,96492.88
2018-12-02T23:59:41.033Z,96490.38
